createdAt,value
2022-11-29T00:00:47.331Z,97.32
2022-11-29T00:03:14.301Z,97.93
2022-11-29T00:05:40.896Z,98.76
2022-11-29T00:08:07.267Z,98.51
2022-11-29T00:10:36.880Z,98.67
2022-11-29T00:13:03.373Z,100.00
2022-11-29T00:15:29.765Z,100.00
2022-11-29T00:17:56.157Z,100.00
2022-11-29T00:20:22.536Z,100.00
2022-11-29T00:22:48.910Z,100.00
2022-11-29T00:25:15.273Z,100.00
2022-11-29T00:27:41.639Z,100.00
2022-11-29T00:30:08.616Z,100.00
2022-11-29T00:32:35.539Z,100.00
2022-11-29T00:35:06.593Z,99.60
2022-11-29T00:37:35.807Z,97.81
2022-11-29T00:40:02.314Z,94.92
2022-11-29T00:42:28.671Z,93.78
2022-11-29T00:44:55.010Z,94.02
2022-11-29T00:47:21.376Z,92.91
2022-11-29T00:49:47.743Z,92.74
2022-11-29T00:52:14.077Z,91.88
2022-11-29T00:54:40.473Z,89.36
2022-11-29T00:57:06.898Z,87.53
2022-11-29T00:59:33.262Z,89.01
2022-11-29T01:01:59.652Z,90.69
2022-11-29T01:04:26.036Z,88.18
2022-11-29T01:06:52.579Z,83.26
2022-11-29T01:09:19.220Z,83.45
2022-11-29T01:11:45.606Z,84.33
2022-11-29T01:14:12.137Z,84.07
2022-11-29T01:16:38.522Z,80.17
2022-11-29T01:19:04.998Z,79.81
2022-11-29T01:21:31.386Z,76.62
2022-11-29T01:23:57.753Z,75.10
2022-11-29T01:26:25.759Z,73.15
2022-11-29T01:28:53.010Z,73.36
2022-11-29T01:31:24.568Z,72.93
2022-11-29T01:33:59.064Z,72.31
2022-11-29T01:36:25.685Z,73.10
2022-11-29T01:38:52.221Z,73.57
2022-11-29T01:41:23.566Z,72.40
2022-11-29T01:44:05.178Z,71.91
2022-11-29T01:46:36.771Z,70.98
2022-11-29T01:49:39.250Z,72.37
2022-11-29T01:52:10.937Z,69.74
2022-11-29T01:54:39.557Z,66.84
2022-11-29T01:57:06.651Z,63.48
2022-11-29T01:59:33.034Z,58.95
2022-11-29T02:02:03.034Z,58.16
2022-11-29T02:04:32.247Z,55.68
2022-11-29T02:06:58.590Z,54.32
2022-11-29T02:09:24.927Z,53.74
2022-11-29T02:12:03.560Z,56.14
2022-11-29T02:14:29.926Z,57.21
2022-11-29T02:17:14.680Z,57.95
2022-11-29T02:20:05.597Z,59.81
2022-11-29T02:22:37.186Z,61.39
2022-11-29T02:25:33.042Z,61.25
2022-11-29T02:28:24.283Z,61.29
2022-11-29T02:31:01.903Z,62.54
2022-11-29T02:33:49.874Z,62.11
2022-11-29T02:36:37.764Z,59.98
2022-11-29T02:39:07.058Z,59.23
2022-11-29T02:41:44.671Z,59.52
2022-11-29T02:44:23.048Z,59.73
2022-11-29T02:46:51.645Z,59.11
2022-11-29T02:49:30.412Z,60.42
2022-11-29T02:52:06.327Z,59.92
2022-11-29T02:54:45.338Z,59.80
2022-11-29T02:57:30.175Z,57.93
2022-11-29T03:00:06.644Z,56.15
2022-11-29T03:02:41.190Z,56.44
2022-11-29T03:05:28.955Z,58.10
2022-11-29T03:08:00.936Z,55.47
2022-11-29T03:10:43.484Z,55.32
2022-11-29T03:13:39.679Z,56.10
2022-11-29T03:16:09.147Z,57.76
2022-11-29T03:19:32.748Z,57.76
2022-11-29T03:22:26.203Z,58.26
2022-11-29T03:25:14.252Z,59.21
2022-11-29T03:27:42.099Z,60.84
2022-11-29T03:30:10.781Z,61.38
2022-11-29T03:32:43.221Z,61.49
2022-11-29T03:35:16.177Z,62.46
2022-11-29T03:37:59.680Z,63.30
2022-11-29T03:40:32.131Z,63.87
2022-11-29T03:43:07.837Z,64.64
2022-11-29T03:45:42.717Z,65.79
2022-11-29T03:48:17.495Z,67.39
2022-11-29T03:51:16.123Z,68.60
2022-11-29T03:53:52.004Z,70.00
2022-11-29T03:56:22.990Z,68.58
2022-11-29T03:58:57.815Z,68.86
2022-11-29T04:01:54.672Z,68.46
2022-11-29T04:04:33.285Z,68.53
2022-11-29T04:07:18.489Z,65.30
2022-11-29T04:10:18.946Z,64.74
2022-11-29T04:13:16.505Z,62.90
2022-11-29T04:15:58.556Z,61.78
2022-11-29T04:18:52.457Z,62.48
2022-11-29T04:21:50.353Z,62.55
2022-11-29T04:24:44.586Z,60.70
2022-11-29T04:27:29.986Z,60.39
2022-11-29T04:30:19.286Z,59.82
2022-11-29T04:32:59.769Z,59.46
2022-11-29T04:36:03.115Z,58.36
2022-11-29T04:38:37.727Z,60.32
2022-11-29T04:41:13.370Z,61.74
2022-11-29T04:43:45.756Z,62.72
2022-11-29T04:46:33.891Z,64.72
2022-11-29T04:49:12.366Z,66.30
2022-11-29T04:52:16.427Z,68.06
2022-11-29T04:55:31.136Z,67.25
2022-11-29T04:58:06.536Z,66.28
2022-11-29T05:00:38.313Z,64.89
2022-11-29T05:03:07.932Z,63.82
2022-11-29T05:06:02.810Z,62.62
2022-11-29T05:09:01.715Z,62.75
2022-11-29T05:11:58.702Z,61.22
2022-11-29T05:15:08.025Z,59.71
2022-11-29T05:17:43.643Z,60.01
2022-11-29T05:20:22.327Z,59.87
2022-11-29T05:23:25.696Z,59.51
2022-11-29T05:25:57.188Z,60.24
2022-11-29T05:28:52.756Z,58.21
2022-11-29T05:31:46.790Z,59.59
2022-11-29T05:34:57.842Z,60.17
2022-11-29T05:37:59.735Z,58.61
2022-11-29T05:40:45.102Z,58.42
2022-11-29T05:43:36.287Z,58.38
2022-11-29T05:46:07.190Z,56.83
2022-11-29T05:48:46.706Z,57.00
2022-11-29T05:51:29.367Z,57.07
2022-11-29T05:54:08.016Z,57.20
2022-11-29T05:56:41.043Z,58.08
2022-11-29T05:59:16.963Z,59.50
2022-11-29T06:01:58.925Z,60.95
2022-11-29T06:04:47.084Z,61.17
2022-11-29T06:07:26.741Z,63.23
2022-11-29T06:10:05.474Z,61.37
2022-11-29T06:12:35.751Z,61.94
2022-11-29T06:15:15.203Z,60.93
2022-11-29T06:18:01.993Z,60.93
2022-11-29T06:20:51.144Z,61.80
2022-11-29T06:23:29.544Z,64.21
2022-11-29T06:26:25.182Z,65.81
2022-11-29T06:29:25.272Z,66.28
2022-11-29T06:31:55.883Z,66.19
2022-11-29T06:34:30.824Z,66.71
2022-11-29T06:37:02.355Z,65.43
2022-11-29T06:39:28.915Z,66.19
2022-11-29T06:41:55.340Z,68.21
2022-11-29T06:44:21.940Z,68.42
2022-11-29T06:47:12.173Z,68.83
2022-11-29T06:49:44.468Z,70.53
2022-11-29T06:52:47.262Z,71.99
2022-11-29T06:55:19.753Z,73.79
2022-11-29T06:57:55.171Z,76.38
2022-11-29T07:00:23.528Z,77.59
2022-11-29T07:03:17.858Z,80.39
2022-11-29T07:05:44.388Z,79.83
2022-11-29T07:08:19.392Z,77.93
2022-11-29T07:10:49.367Z,78.26
2022-11-29T07:13:16.763Z,77.05
2022-11-29T07:16:03.803Z,76.68
2022-11-29T07:18:44.608Z,77.00
2022-11-29T07:21:23.635Z,76.65
2022-11-29T07:23:56.102Z,77.31
2022-11-29T07:26:39.913Z,76.42
2022-11-29T07:29:38.805Z,78.51
2022-11-29T07:32:08.327Z,78.14
2022-11-29T07:34:40.989Z,77.63
2022-11-29T07:37:26.055Z,76.56
2022-11-29T07:40:17.194Z,76.22
2022-11-29T07:43:11.189Z,76.78
2022-11-29T07:45:37.610Z,75.33
2022-11-29T07:48:04.478Z,76.33
2022-11-29T07:50:30.944Z,75.94
2022-11-29T07:52:57.448Z,75.16
2022-11-29T07:55:24.798Z,73.19
2022-11-29T07:57:51.677Z,72.21
2022-11-29T08:00:18.643Z,72.91
2022-11-29T08:02:45.126Z,73.31
2022-11-29T08:05:11.546Z,72.72
2022-11-29T08:07:38.601Z,73.83
2022-11-29T08:10:07.033Z,73.23
2022-11-29T08:12:33.442Z,74.96
2022-11-29T08:14:59.807Z,71.95
2022-11-29T08:17:26.177Z,70.51
2022-11-29T08:19:52.885Z,68.53
2022-11-29T08:22:19.281Z,67.07
2022-11-29T08:24:45.808Z,66.74
2022-11-29T08:27:12.288Z,67.40
2022-11-29T08:29:38.645Z,66.13
2022-11-29T08:32:05.778Z,66.05
2022-11-29T08:34:32.278Z,65.23
2022-11-29T08:36:58.689Z,64.05
2022-11-29T08:39:25.048Z,63.10
2022-11-29T08:41:51.460Z,64.61
2022-11-29T08:44:18.294Z,66.43
2022-11-29T08:47:03.353Z,67.67
2022-11-29T08:49:29.719Z,70.54
2022-11-29T08:52:16.071Z,72.24
2022-11-29T08:54:42.633Z,72.86
2022-11-29T08:59:55.636Z,73.87
2022-11-29T09:02:22.032Z,73.85
2022-11-29T09:04:48.453Z,74.23
2022-11-29T09:07:16.076Z,74.84
2022-11-29T09:09:42.501Z,73.90
2022-11-29T09:12:08.842Z,73.74
2022-11-29T09:14:35.226Z,74.19
2022-11-29T09:17:01.698Z,74.84
2022-11-29T09:19:28.307Z,75.28
2022-11-29T09:21:54.658Z,76.65
2022-11-29T09:24:21.025Z,75.67
2022-11-29T09:26:50.427Z,75.27
2022-11-29T09:29:16.984Z,73.18
2022-11-29T09:31:46.358Z,70.65
2022-11-29T09:34:16.445Z,68.25
2022-11-29T09:36:45.796Z,66.75
2022-11-29T09:39:15.020Z,65.75
2022-11-29T09:42:00.035Z,66.89
2022-11-29T09:44:44.884Z,65.22
2022-11-29T09:47:23.485Z,63.59
2022-11-29T09:50:00.218Z,62.17
2022-11-29T09:52:46.487Z,62.09
2022-11-29T09:55:35.224Z,62.19
2022-11-29T09:58:03.677Z,60.92
2022-11-29T10:00:30.674Z,62.08
2022-11-29T10:03:01.202Z,58.77
2022-11-29T10:05:30.566Z,58.60
2022-11-29T10:08:08.799Z,58.98
2022-11-29T10:10:48.687Z,59.43
2022-11-29T10:13:31.858Z,58.10
2022-11-29T10:16:03.046Z,57.46
2022-11-29T10:18:33.679Z,55.86
2022-11-29T10:21:04.989Z,54.10
2022-11-29T10:23:34.245Z,53.75
2022-11-29T10:26:00.628Z,54.08
2022-11-29T10:28:32.119Z,54.46
2022-11-29T10:31:02.308Z,53.30
2022-11-29T10:33:30.901Z,53.46
2022-11-29T10:35:59.505Z,52.60
2022-11-29T10:38:33.025Z,49.84
2022-11-29T10:41:10.481Z,51.00
2022-11-29T10:43:37.442Z,51.93
2022-11-29T10:46:03.979Z,51.53
2022-11-29T10:48:34.301Z,54.04
2022-11-29T10:51:00.910Z,55.90
2022-11-29T10:53:28.216Z,57.19
2022-11-29T10:56:07.430Z,58.70
2022-11-29T10:58:33.914Z,61.21
2022-11-29T11:01:08.322Z,62.33
2022-11-29T11:03:41.771Z,63.34
2022-11-29T11:06:16.137Z,64.91
2022-11-29T11:08:56.785Z,65.87
2022-11-29T11:11:28.508Z,66.54
2022-11-29T11:14:06.001Z,65.68
2022-11-29T11:16:37.004Z,64.81
2022-11-29T11:19:25.226Z,66.26
2022-11-29T11:21:51.569Z,66.76
2022-11-29T11:24:24.422Z,67.94
2022-11-29T11:26:50.814Z,66.94
2022-11-29T11:29:23.104Z,67.10
2022-11-29T11:31:57.058Z,67.63
2022-11-29T11:34:29.947Z,67.28
2022-11-29T11:37:13.403Z,65.98
2022-11-29T11:39:39.833Z,64.59
2022-11-29T11:42:24.792Z,63.53
2022-11-29T11:44:53.262Z,64.96
2022-11-29T11:47:21.448Z,65.43
2022-11-29T11:50:07.050Z,63.84
2022-11-29T11:52:41.264Z,64.40
2022-11-29T11:55:21.174Z,66.04
2022-11-29T11:58:10.341Z,66.97
2022-11-29T12:01:02.790Z,66.62
2022-11-29T12:03:49.940Z,65.29
2022-11-29T12:06:28.440Z,66.12
2022-11-29T12:09:02.705Z,66.21
2022-11-29T12:11:45.666Z,66.82
2022-11-29T12:14:18.649Z,65.92
2022-11-29T12:16:45.057Z,63.83
2022-11-29T12:19:21.424Z,63.28
2022-11-29T12:21:52.388Z,62.42
2022-11-29T12:24:26.515Z,62.20
2022-11-29T12:26:58.099Z,61.62
2022-11-29T12:29:24.803Z,61.07
2022-11-29T12:32:14.449Z,60.38
2022-11-29T12:34:55.978Z,61.36
2022-11-29T12:37:25.639Z,62.80
2022-11-29T12:39:57.619Z,63.32
2022-11-29T12:42:49.047Z,62.77
2022-11-29T12:45:37.823Z,63.59
2022-11-29T12:48:10.309Z,63.64
2022-11-29T12:50:50.810Z,63.75
2022-11-29T12:53:55.833Z,63.63
2022-11-29T12:56:32.843Z,63.32
2022-11-29T12:59:21.058Z,61.87
2022-11-29T13:02:24.506Z,61.59
2022-11-29T13:05:05.752Z,59.44
2022-11-29T13:07:57.487Z,58.22
2022-11-29T13:11:01.310Z,58.18
2022-11-29T13:13:36.570Z,56.42
2022-11-29T13:16:31.319Z,56.55
2022-11-29T13:19:02.695Z,56.74
2022-11-29T13:21:37.264Z,57.51
2022-11-29T13:24:10.652Z,58.56
2022-11-29T13:26:38.468Z,55.42
2022-11-29T13:29:04.914Z,55.17
2022-11-29T13:31:31.353Z,54.69
2022-11-29T13:34:19.585Z,52.06
2022-11-29T13:36:52.146Z,50.87
2022-11-29T13:39:24.483Z,50.73
2022-11-29T13:42:15.882Z,51.39
2022-11-29T13:44:55.335Z,52.15
2022-11-29T13:47:21.726Z,52.17
2022-11-29T13:50:03.922Z,52.10
2022-11-29T13:52:43.112Z,51.74
2022-11-29T13:55:12.483Z,51.46
2022-11-29T14:00:44.528Z,51.40
2022-11-29T14:03:23.033Z,51.45
2022-11-29T14:06:01.623Z,53.56
2022-11-29T14:08:55.021Z,55.05
2022-11-29T14:11:43.148Z,55.80
2022-11-29T14:14:15.518Z,55.17
2022-11-29T14:16:41.872Z,56.56
2022-11-29T14:19:08.266Z,57.51
2022-11-29T14:21:56.778Z,61.09
2022-11-29T14:24:32.032Z,62.82
2022-11-29T14:27:07.789Z,66.03
2022-11-29T14:29:49.049Z,70.37
2022-11-29T14:32:30.613Z,72.72
2022-11-29T14:35:12.194Z,74.07
2022-11-29T14:38:12.803Z,74.76
2022-11-29T14:40:41.965Z,74.96
2022-11-29T14:43:37.581Z,75.77
2022-11-29T14:46:29.063Z,75.84
2022-11-29T14:48:55.907Z,74.82
2022-11-29T14:51:26.305Z,75.29
2022-11-29T14:54:04.466Z,76.71
2022-11-29T14:56:30.792Z,75.24
2022-11-29T14:59:34.593Z,76.09
2022-11-29T15:02:02.628Z,76.97
2022-11-29T15:04:35.385Z,78.33
2022-11-29T15:07:01.733Z,78.94
2022-11-29T15:09:28.102Z,79.50
2022-11-29T15:12:23.906Z,81.04
2022-11-29T15:15:18.134Z,82.78
2022-11-29T15:18:00.883Z,84.21
2022-11-29T15:20:39.334Z,83.16
2022-11-29T15:23:07.864Z,83.37
2022-11-29T15:25:34.317Z,82.04
2022-11-29T15:28:05.833Z,82.51
2022-11-29T15:30:32.498Z,82.81
2022-11-29T15:32:59.574Z,83.14
2022-11-29T15:35:26.123Z,83.42
2022-11-29T15:37:52.546Z,84.99
2022-11-29T15:40:21.120Z,86.48
2022-11-29T15:42:54.596Z,87.51
2022-11-29T15:45:34.872Z,91.65
2022-11-29T15:48:20.552Z,98.57
2022-11-29T15:51:24.373Z,100.00
2022-11-29T15:54:27.142Z,100.00
2022-11-29T15:56:59.298Z,100.00
2022-11-29T15:59:57.443Z,100.00
2022-11-29T16:02:28.764Z,100.00
2022-11-29T16:04:57.219Z,100.00
2022-11-29T16:07:24.322Z,100.00
2022-11-29T16:09:57.821Z,100.00
2022-11-29T16:12:24.172Z,100.00
2022-11-29T16:14:57.948Z,100.00
2022-11-29T16:17:28.894Z,100.00
2022-11-29T16:20:25.555Z,100.00
2022-11-29T16:23:04.769Z,100.00
2022-11-29T16:25:37.244Z,100.00
2022-11-29T16:28:05.868Z,100.00
2022-11-29T16:30:32.256Z,100.00
2022-11-29T16:32:59.350Z,100.00
2022-11-29T16:35:36.157Z,100.00
2022-11-29T16:38:05.590Z,100.00
2022-11-29T16:40:33.372Z,100.00
2022-11-29T16:43:02.818Z,100.00
2022-11-29T16:45:35.290Z,100.00
2022-11-29T16:48:02.784Z,100.00
2022-11-29T16:50:32.741Z,100.00
2022-11-29T16:53:36.780Z,100.00
2022-11-29T16:56:09.254Z,100.00
2022-11-29T16:58:41.688Z,100.00
2022-11-29T17:01:26.747Z,100.00
2022-11-29T17:03:53.424Z,100.00
2022-11-29T17:06:22.455Z,100.00
2022-11-29T17:08:49.850Z,100.00
2022-11-29T17:11:16.213Z,100.00
2022-11-29T17:13:42.623Z,100.00
2022-11-29T17:16:13.502Z,100.00
2022-11-29T17:18:41.275Z,100.00
2022-11-29T17:21:18.643Z,100.00
2022-11-29T17:23:45.586Z,100.00
2022-11-29T17:26:12.016Z,100.00
2022-11-29T17:28:40.272Z,100.00
2022-11-29T17:31:14.635Z,100.00
2022-11-29T17:33:41.130Z,100.00
2022-11-29T17:36:08.408Z,100.00
2022-11-29T17:38:34.996Z,100.00
2022-11-29T17:41:08.465Z,100.00
2022-11-29T17:43:35.548Z,100.00
2022-11-29T17:46:16.473Z,100.00
2022-11-29T17:48:45.377Z,100.00
2022-11-29T17:51:43.700Z,100.00
2022-11-29T17:54:02.907Z,100.00
2022-11-29T17:56:29.925Z,100.00
2022-11-29T17:58:57.663Z,100.00
2022-11-29T18:01:25.569Z,100.00
2022-11-29T18:03:56.427Z,100.00
2022-11-29T18:06:26.909Z,100.00
2022-11-29T18:08:55.326Z,100.00
2022-11-29T18:11:26.647Z,100.00
2022-11-29T18:13:53.663Z,100.00
2022-11-29T18:16:24.395Z,100.00
2022-11-29T18:18:58.807Z,100.00
2022-11-29T18:21:25.333Z,100.00
2022-11-29T18:23:51.786Z,100.00
2022-11-29T18:26:19.814Z,100.00
2022-11-29T18:28:46.448Z,100.00
2022-11-29T18:31:12.832Z,100.00
2022-11-29T18:33:39.981Z,100.00
2022-11-29T18:36:09.905Z,100.00
2022-11-29T18:38:40.550Z,100.00
2022-11-29T18:41:08.015Z,100.00
2022-11-29T18:43:34.668Z,100.00
2022-11-29T18:46:14.650Z,100.00
2022-11-29T18:48:41.300Z,100.00
2022-11-29T18:51:09.491Z,100.00
2022-11-29T18:53:36.331Z,100.00
2022-11-29T18:56:15.575Z,100.00
2022-11-29T18:58:47.311Z,100.00
2022-11-29T19:01:16.363Z,100.00
2022-11-29T19:03:44.738Z,100.00
2022-11-29T19:06:13.030Z,100.00
2022-11-29T19:08:39.562Z,100.00
2022-11-29T19:11:11.001Z,100.00
2022-11-29T19:13:37.510Z,100.00
2022-11-29T19:16:04.353Z,100.00
2022-11-29T19:18:30.716Z,100.00
2022-11-29T19:21:23.924Z,100.00
2022-11-29T19:24:02.133Z,100.00
2022-11-29T19:26:29.669Z,100.00
2022-11-29T19:28:56.123Z,100.00
2022-11-29T19:31:25.014Z,100.00
2022-11-29T19:33:52.463Z,100.00
2022-11-29T19:36:26.708Z,100.00
2022-11-29T19:38:54.035Z,100.00
2022-11-29T19:41:21.681Z,100.00
2022-11-29T19:43:48.416Z,100.00
2022-11-29T19:46:19.168Z,100.00
2022-11-29T19:48:45.788Z,100.00
2022-11-29T19:51:12.772Z,100.00
2022-11-29T19:53:39.394Z,100.00
2022-11-29T19:56:11.164Z,100.00
2022-11-29T19:58:37.583Z,100.00
2022-11-29T20:01:08.126Z,100.00
2022-11-29T20:03:34.720Z,100.00
2022-11-29T20:06:01.304Z,100.00
2022-11-29T20:08:28.273Z,100.00
2022-11-29T20:10:54.753Z,100.00
2022-11-29T20:13:21.453Z,100.00
2022-11-29T20:15:47.984Z,100.00
2022-11-29T20:18:14.364Z,100.00
2022-11-29T20:20:40.752Z,100.00
2022-11-29T20:23:07.133Z,100.00
2022-11-29T20:25:33.762Z,100.00
2022-11-29T20:28:00.180Z,100.00
2022-11-29T20:30:26.821Z,100.00
2022-11-29T20:32:53.278Z,100.00
2022-11-29T20:35:19.865Z,100.00
2022-11-29T20:37:47.138Z,100.00
2022-11-29T20:40:17.025Z,100.00
2022-11-29T20:42:46.387Z,100.00
2022-11-29T20:45:13.889Z,100.00
2022-11-29T20:47:46.340Z,100.00
2022-11-29T20:50:23.526Z,100.00
2022-11-29T20:53:11.583Z,100.00
2022-11-29T20:55:42.490Z,100.00
2022-11-29T20:58:12.757Z,100.00
2022-11-29T21:00:39.136Z,100.00
2022-11-29T21:03:05.511Z,100.00
2022-11-29T21:05:31.970Z,100.00
2022-11-29T21:07:58.340Z,100.00
2022-11-29T21:10:24.733Z,100.00
2022-11-29T21:12:51.393Z,100.00
2022-11-29T21:15:18.220Z,100.00
2022-11-29T21:17:44.808Z,100.00
2022-11-29T21:20:29.374Z,100.00
2022-11-29T21:23:14.069Z,100.00
2022-11-29T21:25:54.664Z,100.00
2022-11-29T21:28:21.103Z,100.00
2022-11-29T21:30:47.661Z,100.00
2022-11-29T21:33:14.247Z,100.00
2022-11-29T21:35:40.725Z,100.00
2022-11-29T21:38:09.573Z,100.00
2022-11-29T21:40:35.925Z,100.00
2022-11-29T21:43:02.278Z,100.00
2022-11-29T21:45:28.680Z,100.00
2022-11-29T21:47:55.114Z,100.00
2022-11-29T21:50:21.567Z,100.00
2022-11-29T21:52:51.274Z,100.00
2022-11-29T21:55:17.813Z,100.00
2022-11-29T21:57:44.156Z,100.00
2022-11-29T22:00:11.026Z,100.00
2022-11-29T22:02:37.566Z,100.00
2022-11-29T22:05:04.120Z,100.00
2022-11-29T22:07:30.480Z,100.00
2022-11-29T22:09:56.884Z,100.00
2022-11-29T22:12:34.363Z,100.00
2022-11-29T22:15:01.183Z,100.00
2022-11-29T22:17:27.599Z,100.00
2022-11-29T22:19:53.962Z,100.00
2022-11-29T22:22:20.362Z,100.00
2022-11-29T22:24:46.988Z,100.00
2022-11-29T22:27:13.512Z,100.00
2022-11-29T22:29:39.893Z,100.00
2022-11-29T22:32:06.310Z,100.00
2022-11-29T22:34:32.741Z,100.00
2022-11-29T22:36:59.107Z,100.00
2022-11-29T22:39:25.627Z,100.00
2022-11-29T22:41:54.742Z,100.00
2022-11-29T22:44:22.465Z,100.00
2022-11-29T22:46:48.924Z,100.00
2022-11-29T22:49:15.315Z,100.00
2022-11-29T22:51:41.683Z,100.00
2022-11-29T22:54:09.268Z,100.00
2022-11-29T22:56:40.267Z,100.00
2022-11-29T22:59:06.893Z,100.00
2022-11-29T23:01:34.734Z,100.00
2022-11-29T23:04:03.797Z,100.00
2022-11-29T23:06:31.891Z,100.00
2022-11-29T23:08:59.321Z,100.00
2022-11-29T23:11:27.318Z,100.00
2022-11-29T23:13:53.990Z,100.00
2022-11-29T23:16:22.172Z,100.00
2022-11-29T23:18:48.735Z,100.00
2022-11-29T23:21:25.643Z,100.00
2022-11-29T23:23:56.271Z,100.00
2022-11-29T23:26:36.333Z,100.00
2022-11-29T23:29:03.579Z,100.00
2022-11-29T23:31:30.016Z,100.00
2022-11-29T23:33:56.389Z,100.00
2022-11-29T23:36:22.737Z,100.00
2022-11-29T23:38:49.145Z,100.00
2022-11-29T23:41:15.528Z,100.00
2022-11-29T23:43:42.116Z,100.00
2022-11-29T23:46:15.461Z,100.00
2022-11-29T23:48:42.324Z,100.00
2022-11-29T23:51:08.957Z,100.00
2022-11-29T23:53:35.325Z,100.00
2022-11-29T23:56:06.518Z,100.00
2022-11-29T23:58:33.060Z,100.00
